Portada
METAR-TAF:

METAR-TAF

Aeroports :

Chiang Rai, Tailàndia

latitud: 19-57-08N, longitud: 099-52-59E, altitud: 390 m

Observació

L'informe es va fer fa 25 minuts, a les 20:00 UTC
Vent calma
Temperatura 18°C
Humitat 94%
Pressió 1010 hPa
Visibilitat: 6000 m

METAR: VTCT 212000Z 00000KT 6000 NSC 18/17 Q1010 NOSIG

Hora: 03:25 (20:25 UTC)

Pronòstic

L'informe es va fer fa 3 hores i 25 minuts, a les 17:00 UTC
Pronòstic vàlid del 21 a les 18 UTC al 22 a les 24 UTC
Vent 5 kt del Oest/Nord-Oest
Visibilitat: 6000 m
Escasses núvols a una alçada de 3000 ft
Evolucionant progressivament
l' 21 a les 21 UTC al 21 a les 23 UTC
Visibilitat: 5000 m
boirina
Evolucionant progressivament
l' 22 a les 01 UTC al 22 a les 03 UTC
Visibilitat: 6000 m

TAF: VTCT 211700Z 2118/2224 30005KT 6000 FEW030 BECMG 2121/2123 5000 BR BECMG 2201/2203 6000 NSW

Observacions i pronòstics meteorològics de més de 4000 aeroports (METAR i TAF).

Les estacions disponibles són els punts grocs i vermells al mapa.

Posi el ratolí al punt desitjat per veure el nom de l'estació.

Feu clic per veure les observacions i els pronòstics meteorològics.

Per canviar el mapa: feu clic els botons verds amb una creu de color negre per apropar; al botó verd amb un guió per allunyar la imatge; o en les fletxes verdes per a mapes adjacents.


METAR-TAF: